createdAt,value
2023-01-28T00:00:09.783Z,86.93
2023-01-28T00:02:39.412Z,86.85
2023-01-28T00:05:07.820Z,86.94
2023-01-28T00:07:35.450Z,86.90
2023-01-28T00:10:03.296Z,87.01
2023-01-28T00:12:30.923Z,87.03
2023-01-28T00:14:58.635Z,87.02
2023-01-28T00:17:28.842Z,87.16
2023-01-28T00:19:56.423Z,87.20
2023-01-28T00:22:24.110Z,87.15
2023-01-28T00:24:51.825Z,87.19
2023-01-28T00:27:20.063Z,87.25
2023-01-28T00:30:01.678Z,87.30
2023-01-28T00:32:31.523Z,87.38
2023-01-28T00:35:01.272Z,87.35
2023-01-28T00:37:30.096Z,87.31
2023-01-28T00:39:59.607Z,87.42
2023-01-28T00:42:27.190Z,87.35
2023-01-28T00:44:56.643Z,87.44
2023-01-28T00:47:26.235Z,87.50
2023-01-28T00:50:11.913Z,87.48
2023-01-28T00:52:39.933Z,87.48
2023-01-28T00:55:08.120Z,87.48
2023-01-28T00:57:35.995Z,87.54
2023-01-28T01:00:05.245Z,87.57
2023-01-28T01:02:33.715Z,87.50
2023-01-28T01:05:02.144Z,87.56
2023-01-28T01:13:37.815Z,87.43
2023-01-28T01:16:12.008Z,87.32
2023-01-28T01:18:42.681Z,87.15
2023-01-28T01:21:16.866Z,87.02
2023-01-28T01:23:46.450Z,87.09
2023-01-28T01:26:14.541Z,87.15
2023-01-28T01:28:42.215Z,87.13
2023-01-28T01:31:17.827Z,87.14
2023-01-28T01:33:47.283Z,87.07
2023-01-28T01:36:16.716Z,87.01
2023-01-28T01:38:45.430Z,86.93
2023-01-28T01:41:22.409Z,87.04
2023-01-28T01:43:55.687Z,87.14
2023-01-28T01:46:30.035Z,87.09
2023-01-28T01:49:01.239Z,87.13
2023-01-28T01:51:31.060Z,87.22
2023-01-28T01:53:59.576Z,87.27
2023-01-28T01:56:31.149Z,87.21
2023-01-28T01:59:00.224Z,87.19
2023-01-28T02:01:29.946Z,87.11
2023-01-28T02:04:22.197Z,87.00
2023-01-28T02:06:50.090Z,86.95
2023-01-28T02:09:25.675Z,87.11
2023-01-28T02:12:10.097Z,87.10
2023-01-28T02:14:41.127Z,87.07
2023-01-28T02:17:09.239Z,87.05
2023-01-28T02:19:43.447Z,86.90
2023-01-28T02:22:23.666Z,86.82
2023-01-28T02:25:14.660Z,86.67
2023-01-28T02:28:01.800Z,86.77
2023-01-28T02:30:37.558Z,86.75
2023-01-28T02:33:12.384Z,86.90
2023-01-28T02:35:56.064Z,87.02
2023-01-28T02:38:27.515Z,87.04
2023-01-28T02:41:01.690Z,86.91
2023-01-28T02:43:38.408Z,87.03
2023-01-28T02:46:30.701Z,87.19
2023-01-28T02:48:59.054Z,87.17
2023-01-28T02:51:36.133Z,86.97
2023-01-28T02:54:16.474Z,87.19
2023-01-28T02:57:03.466Z,87.29
2023-01-28T02:59:42.882Z,87.41
2023-01-28T03:02:39.164Z,87.35
2023-01-28T03:05:16.432Z,87.31
2023-01-28T03:07:44.550Z,87.61
2023-01-28T03:10:16.263Z,87.65
2023-01-28T03:13:03.185Z,87.62
2023-01-28T03:15:55.486Z,87.76
2023-01-28T03:18:50.836Z,87.76
2023-01-28T03:21:39.812Z,87.87
2023-01-28T03:24:32.115Z,87.82
2023-01-28T03:27:29.269Z,87.81
2023-01-28T03:30:19.601Z,87.75
2023-01-28T03:33:06.174Z,87.81
2023-01-28T03:35:53.477Z,87.75
2023-01-28T03:38:22.588Z,87.64
2023-01-28T03:40:53.695Z,87.61
2023-01-28T03:43:22.636Z,87.61
2023-01-28T03:45:52.028Z,87.51
2023-01-28T03:48:20.610Z,87.35
2023-01-28T03:50:48.616Z,87.32
2023-01-28T03:53:17.160Z,87.34
2023-01-28T03:55:50.570Z,87.36
2023-01-28T03:58:18.693Z,87.47
2023-01-28T04:00:47.065Z,87.56
2023-01-28T04:03:16.504Z,87.53
2023-01-28T04:06:00.891Z,87.63
2023-01-28T04:08:30.554Z,87.73
2023-01-28T04:11:19.522Z,87.82
2023-01-28T04:13:48.843Z,87.75
2023-01-28T04:16:18.365Z,87.81
2023-01-28T04:18:46.286Z,87.86
2023-01-28T04:21:14.242Z,87.93
2023-01-28T04:23:42.111Z,87.98
2023-01-28T04:26:10.880Z,88.09
2023-01-28T04:28:38.747Z,88.18
2023-01-28T04:31:06.930Z,88.20
2023-01-28T04:34:02.801Z,88.18
2023-01-28T04:36:42.034Z,88.02
2023-01-28T04:39:24.385Z,87.58
2023-01-28T04:42:10.455Z,87.49
2023-01-28T04:44:40.017Z,87.57
2023-01-28T04:47:09.858Z,87.61
2023-01-28T04:49:55.815Z,87.63
2023-01-28T04:52:28.277Z,87.66
2023-01-28T04:54:58.166Z,87.70
2023-01-28T04:57:25.822Z,87.66
2023-01-28T04:59:53.499Z,87.60
2023-01-28T05:02:22.342Z,87.56
2023-01-28T05:04:50.181Z,87.56
2023-01-28T05:07:20.855Z,87.43
2023-01-28T05:09:48.983Z,87.41
2023-01-28T05:12:16.884Z,87.41
2023-01-28T05:14:46.780Z,87.46
2023-01-28T05:17:17.817Z,87.49
2023-01-28T05:19:46.402Z,87.43
2023-01-28T05:22:27.196Z,87.43
2023-01-28T05:25:35.882Z,87.37
2023-01-28T05:31:18.463Z,87.21
2023-01-28T05:33:47.916Z,87.26
2023-01-28T05:36:16.661Z,87.23
2023-01-28T05:38:44.179Z,87.18
2023-01-28T05:41:11.882Z,87.22
2023-01-28T05:43:40.447Z,87.22
2023-01-28T05:46:11.519Z,87.21
2023-01-28T05:48:58.981Z,87.26
2023-01-28T05:51:45.097Z,87.31
2023-01-28T05:54:14.573Z,87.30
2023-01-28T05:56:43.324Z,87.27
2023-01-28T05:59:11.662Z,87.18
2023-01-28T06:01:42.351Z,87.20
2023-01-28T06:04:11.986Z,87.22
2023-01-28T06:06:40.306Z,87.23
2023-01-28T06:09:10.849Z,87.17
2023-01-28T06:11:38.846Z,87.19
2023-01-28T06:14:06.829Z,87.26
2023-01-28T06:16:51.075Z,87.35
2023-01-28T06:19:37.298Z,87.41
2023-01-28T06:22:14.427Z,87.35
2023-01-28T06:24:42.237Z,87.36
2023-01-28T06:27:12.821Z,87.42
2023-01-28T06:29:40.465Z,87.47
2023-01-28T06:32:08.093Z,87.42
2023-01-28T06:34:35.557Z,87.49
2023-01-28T06:37:06.450Z,87.48
2023-01-28T06:39:34.348Z,87.42
2023-01-28T06:42:02.435Z,87.33
2023-01-28T06:44:33.135Z,87.33
2023-01-28T06:47:00.862Z,87.36
2023-01-28T06:49:28.835Z,87.48
2023-01-28T06:52:04.656Z,87.55
2023-01-28T06:54:32.498Z,87.53
2023-01-28T06:57:00.454Z,87.42
2023-01-28T06:59:28.112Z,87.47
2023-01-28T07:01:55.517Z,87.57
2023-01-28T07:04:22.722Z,87.50
2023-01-28T07:06:50.267Z,87.46
2023-01-28T07:09:17.813Z,87.42
2023-01-28T07:11:45.182Z,87.57
2023-01-28T07:14:12.997Z,87.39
2023-01-28T07:16:41.285Z,87.35
2023-01-28T07:19:09.291Z,87.42
2023-01-28T07:21:51.839Z,87.45
2023-01-28T07:24:21.370Z,87.39
2023-01-28T07:26:49.375Z,87.49
2023-01-28T07:29:17.149Z,87.52
2023-01-28T07:31:44.846Z,87.48
2023-01-28T07:34:12.885Z,87.45
2023-01-28T07:36:40.753Z,87.35
2023-01-28T07:39:08.618Z,87.34
2023-01-28T07:41:36.223Z,87.30
2023-01-28T07:44:05.689Z,87.34
2023-01-28T07:46:33.860Z,87.30
2023-01-28T07:49:01.886Z,87.33
2023-01-28T07:51:29.613Z,87.33
2023-01-28T07:54:00.804Z,87.32
2023-01-28T07:56:30.766Z,87.01
2023-01-28T07:58:58.428Z,87.19
2023-01-28T08:01:26.559Z,87.29
2023-01-28T08:03:59.980Z,87.23
2023-01-28T08:06:29.163Z,87.40
2023-01-28T08:08:56.694Z,87.34
2023-01-28T08:11:24.335Z,87.22
2023-01-28T08:13:56.445Z,87.26
2023-01-28T08:16:27.325Z,87.49
2023-01-28T08:18:59.221Z,87.46
2023-01-28T08:21:26.739Z,87.37
2023-01-28T08:23:54.964Z,87.54
2023-01-28T08:26:22.504Z,87.69
2023-01-28T08:28:51.505Z,87.65
2023-01-28T08:31:19.964Z,87.87
2023-01-28T08:33:47.388Z,87.62
2023-01-28T08:36:15.169Z,87.58
2023-01-28T08:38:42.954Z,87.57
2023-01-28T08:41:10.886Z,87.55
2023-01-28T08:43:38.164Z,87.71
2023-01-28T08:46:07.052Z,87.72
2023-01-28T08:48:34.732Z,87.38
2023-01-28T08:51:03.346Z,87.29
2023-01-28T08:53:30.930Z,87.13
2023-01-28T08:55:58.386Z,86.89
2023-01-28T08:58:25.784Z,86.68
2023-01-28T09:00:53.276Z,86.63
2023-01-28T09:03:20.572Z,86.66
2023-01-28T09:05:49.761Z,86.59
2023-01-28T09:08:18.140Z,86.65
2023-01-28T09:10:45.428Z,86.61
2023-01-28T09:13:15.169Z,86.68
2023-01-28T09:15:43.187Z,86.51
2023-01-28T09:18:10.504Z,86.59
2023-01-28T09:20:38.185Z,86.82
2023-01-28T09:23:06.345Z,86.84
2023-01-28T09:25:35.481Z,86.66
2023-01-28T09:28:03.389Z,86.36
2023-01-28T09:30:31.070Z,86.24
2023-01-28T09:32:58.872Z,86.00
2023-01-28T09:35:26.286Z,86.13
2023-01-28T09:37:58.626Z,86.12
2023-01-28T09:40:32.838Z,86.15
2023-01-28T09:43:17.486Z,86.64
2023-01-28T09:45:50.444Z,86.89
2023-01-28T09:48:21.384Z,86.95
2023-01-28T09:50:51.128Z,86.61
2023-01-28T09:53:22.345Z,86.34
2023-01-28T09:55:59.179Z,86.38
2023-01-28T09:58:26.891Z,86.09
2023-01-28T10:01:31.120Z,85.86
2023-01-28T10:04:33.280Z,85.67
2023-01-28T10:07:28.469Z,85.76
2023-01-28T10:10:23.628Z,85.82
2023-01-28T10:13:06.633Z,85.86
2023-01-28T10:15:53.333Z,85.77
2023-01-28T10:18:24.385Z,85.55
2023-01-28T10:20:55.431Z,85.38
2023-01-28T10:23:26.383Z,85.20
2023-01-28T10:25:55.619Z,84.80
2023-01-28T10:28:27.659Z,84.84
2023-01-28T10:30:55.620Z,84.84
2023-01-28T10:33:29.784Z,84.81
2023-01-28T10:35:58.283Z,84.68
2023-01-28T10:38:27.339Z,84.69
2023-01-28T10:40:57.931Z,84.77
2023-01-28T10:43:28.611Z,84.33
2023-01-28T10:46:14.815Z,84.33
2023-01-28T10:48:46.125Z,84.19
2023-01-28T10:51:14.799Z,84.20
2023-01-28T10:53:48.479Z,83.46
2023-01-28T10:56:18.028Z,82.98
2023-01-28T10:59:03.455Z,83.39
2023-01-28T11:01:46.431Z,83.57
2023-01-28T11:04:18.957Z,83.61
2023-01-28T11:06:54.088Z,84.16
2023-01-28T11:09:25.110Z,84.54
2023-01-28T11:11:52.879Z,84.57
2023-01-28T11:14:21.989Z,84.91
2023-01-28T11:16:50.480Z,85.34
2023-01-28T11:19:20.488Z,85.64
2023-01-28T11:21:50.625Z,85.50
2023-01-28T11:24:24.286Z,85.51
2023-01-28T11:26:54.186Z,85.63
2023-01-28T11:29:32.669Z,85.61
2023-01-28T11:32:01.399Z,85.41
2023-01-28T11:34:32.561Z,85.26
2023-01-28T11:37:06.361Z,85.10
2023-01-28T11:39:33.612Z,85.12
2023-01-28T11:42:13.890Z,85.23
2023-01-28T11:44:41.619Z,84.95
2023-01-28T11:47:31.165Z,85.11
2023-01-28T11:50:18.404Z,85.04
2023-01-28T11:53:07.391Z,85.29
2023-01-28T11:55:52.692Z,85.41
2023-01-28T11:58:26.777Z,85.13
2023-01-28T12:01:09.965Z,85.20
2023-01-28T12:03:57.245Z,85.03
2023-01-28T12:06:49.325Z,85.08
2023-01-28T12:09:38.887Z,84.66
2023-01-28T12:12:13.228Z,84.17
2023-01-28T12:14:59.646Z,83.96
2023-01-28T12:17:48.654Z,84.17
2023-01-28T12:20:26.599Z,84.24
2023-01-28T12:22:58.401Z,83.93
2023-01-28T12:25:35.478Z,84.30
2023-01-28T12:28:18.632Z,84.57
2023-01-28T12:31:14.776Z,84.55
2023-01-28T12:34:06.136Z,84.69
2023-01-28T12:36:53.693Z,84.70
2023-01-28T12:39:58.257Z,84.81
2023-01-28T12:42:37.775Z,84.71
2023-01-28T12:45:24.941Z,84.61
2023-01-28T12:48:21.841Z,84.52
2023-01-28T12:51:02.087Z,84.39
2023-01-28T12:53:41.333Z,84.32
2023-01-28T12:56:22.529Z,84.30
2023-01-28T12:59:02.735Z,84.38
2023-01-28T13:01:42.542Z,84.54
2023-01-28T13:04:28.491Z,84.89
2023-01-28T13:07:02.305Z,84.66
2023-01-28T13:09:30.586Z,84.23
2023-01-28T13:11:59.440Z,84.31
2023-01-28T13:14:31.786Z,84.29
2023-01-28T13:17:10.053Z,84.03
2023-01-28T13:19:39.976Z,84.05
2023-01-28T13:22:12.906Z,84.48
2023-01-28T13:24:40.340Z,84.67
2023-01-28T13:27:13.992Z,84.70
2023-01-28T13:29:45.684Z,84.72
2023-01-28T13:32:31.685Z,84.52
2023-01-28T13:35:02.459Z,84.59
2023-01-28T13:37:33.438Z,84.57
2023-01-28T13:40:14.312Z,84.50
2023-01-28T13:42:42.295Z,84.51
2023-01-28T13:45:20.580Z,84.70
2023-01-28T13:48:15.473Z,84.63
2023-01-28T13:50:43.753Z,84.77
2023-01-28T13:53:31.728Z,84.67
2023-01-28T13:56:07.325Z,84.86
2023-01-28T13:58:39.661Z,84.94
2023-01-28T14:01:20.082Z,84.92
2023-01-28T14:04:08.636Z,84.67
2023-01-28T14:07:04.464Z,84.46
2023-01-28T14:09:35.849Z,84.54
2023-01-28T14:12:22.350Z,84.40
2023-01-28T14:14:59.760Z,84.22
2023-01-28T14:17:44.861Z,84.30
2023-01-28T14:20:41.807Z,84.38
2023-01-28T14:23:21.622Z,84.42
2023-01-28T14:26:02.430Z,84.21
2023-01-28T14:28:54.376Z,83.93
2023-01-28T14:31:48.002Z,84.08
2023-01-28T14:34:24.654Z,84.28
2023-01-28T14:36:55.616Z,84.23
2023-01-28T14:39:30.274Z,84.32
2023-01-28T14:42:02.735Z,84.61
2023-01-28T14:44:39.720Z,84.71
2023-01-28T14:47:34.034Z,84.66
2023-01-28T14:50:48.143Z,84.73
2023-01-28T14:53:35.726Z,84.94
2023-01-28T14:56:41.585Z,84.98
2023-01-28T14:59:20.801Z,85.03
2023-01-28T15:01:49.227Z,84.99
2023-01-28T15:04:26.016Z,85.03
2023-01-28T15:06:53.551Z,85.05
2023-01-28T15:09:29.153Z,85.21
2023-01-28T15:11:57.847Z,85.22
2023-01-28T15:14:32.311Z,85.25
2023-01-28T15:17:00.280Z,85.45
2023-01-28T15:19:30.176Z,85.33
2023-01-28T15:22:02.510Z,85.36
2023-01-28T15:24:32.246Z,85.42
2023-01-28T15:26:59.990Z,85.54
2023-01-28T15:29:35.963Z,85.51
2023-01-28T15:32:05.776Z,85.55
2023-01-28T15:34:33.119Z,85.58
2023-01-28T15:37:01.029Z,85.62
2023-01-28T15:39:29.373Z,85.79
2023-01-28T15:42:00.158Z,85.84
2023-01-28T15:44:44.597Z,85.86
2023-01-28T15:47:15.681Z,85.91
2023-01-28T15:49:47.668Z,86.10
2023-01-28T15:52:15.555Z,86.08
2023-01-28T15:54:45.519Z,86.31
2023-01-28T15:57:34.173Z,86.54
2023-01-28T16:00:09.122Z,86.45
2023-01-28T16:02:53.265Z,86.43
2023-01-28T16:05:31.945Z,86.55
2023-01-28T16:08:11.246Z,86.58
2023-01-28T16:10:39.150Z,86.68
2023-01-28T16:13:15.839Z,86.64
2023-01-28T16:15:47.189Z,86.64
2023-01-28T16:18:20.710Z,86.55
2023-01-28T16:20:50.046Z,86.62
2023-01-28T16:23:22.602Z,86.62
2023-01-28T16:26:02.456Z,86.46
2023-01-28T16:28:30.504Z,86.50
2023-01-28T16:31:01.506Z,86.61
2023-01-28T16:33:29.323Z,86.58
2023-01-28T16:36:07.981Z,86.78
2023-01-28T16:40:54.984Z,86.90
2023-01-28T16:43:25.438Z,87.00
2023-01-28T16:45:52.970Z,87.02
2023-01-28T16:48:21.921Z,87.04
2023-01-28T16:50:49.403Z,87.14
2023-01-28T16:53:19.385Z,87.07
2023-01-28T16:55:48.994Z,87.08
2023-01-28T16:58:19.462Z,87.23
2023-01-28T17:00:46.973Z,87.22
2023-01-28T17:03:14.221Z,87.22
2023-01-28T17:05:41.661Z,87.31
2023-01-28T17:08:08.911Z,87.40
2023-01-28T17:10:36.291Z,87.46
2023-01-28T17:13:04.413Z,87.50
2023-01-28T17:15:34.556Z,87.44
2023-01-28T17:18:02.481Z,87.37
2023-01-28T17:20:29.896Z,87.32
2023-01-28T17:22:57.386Z,87.39
2023-01-28T17:25:25.335Z,87.48
2023-01-28T17:27:52.749Z,87.40
2023-01-28T17:30:20.239Z,87.36
2023-01-28T17:32:47.652Z,87.33
2023-01-28T17:35:15.423Z,87.24
2023-01-28T17:37:43.168Z,87.24
2023-01-28T17:40:14.965Z,87.30
2023-01-28T17:42:42.676Z,87.29
2023-01-28T17:45:10.177Z,87.33
2023-01-28T17:47:37.588Z,87.45
2023-01-28T17:50:13.942Z,87.40
2023-01-28T17:52:51.210Z,87.47
2023-01-28T17:55:24.488Z,87.62
2023-01-28T17:58:11.715Z,87.59
2023-01-28T18:00:53.290Z,87.61
2023-01-28T18:03:25.243Z,87.72
2023-01-28T18:05:59.752Z,87.76
2023-01-28T18:08:27.955Z,87.98
2023-01-28T18:10:55.957Z,88.01
2023-01-28T18:13:23.559Z,87.98
2023-01-28T18:15:51.369Z,88.30
2023-01-28T18:18:19.367Z,88.33
2023-01-28T18:20:59.586Z,88.23
2023-01-28T18:23:27.141Z,88.34
2023-01-28T18:26:00.862Z,88.77
2023-01-28T18:28:28.591Z,88.59
2023-01-28T18:30:58.286Z,88.68
2023-01-28T18:33:25.976Z,88.91
2023-01-28T18:35:53.559Z,88.99
2023-01-28T18:38:21.064Z,89.18
2023-01-28T18:40:49.148Z,89.41
2023-01-28T18:43:16.957Z,89.28
2023-01-28T18:45:46.300Z,89.53
2023-01-28T18:48:14.366Z,89.60
2023-01-28T18:50:41.902Z,89.72
2023-01-28T18:53:09.165Z,89.77
2023-01-28T18:55:36.525Z,89.95
2023-01-28T18:58:04.031Z,90.04
2023-01-28T19:00:34.767Z,90.09
2023-01-28T19:03:02.327Z,90.24
2023-01-28T19:05:35.423Z,90.26
2023-01-28T19:08:04.762Z,90.19
2023-01-28T19:10:34.021Z,90.19
2023-01-28T19:13:01.559Z,90.33
2023-01-28T19:15:31.153Z,90.63
2023-01-28T19:17:58.659Z,90.65
2023-01-28T19:20:26.565Z,90.68
2023-01-28T19:22:55.999Z,90.67
2023-01-28T19:25:23.744Z,90.80
2023-01-28T19:27:53.272Z,90.73
2023-01-28T19:30:21.015Z,90.82
2023-01-28T19:32:48.555Z,90.86
2023-01-28T19:35:16.706Z,90.82
2023-01-28T19:37:44.272Z,90.80
2023-01-28T19:40:11.906Z,90.80
2023-01-28T19:42:39.440Z,90.67
2023-01-28T19:45:07.737Z,90.61
2023-01-28T19:47:35.026Z,90.50
2023-01-28T19:50:02.460Z,90.37
2023-01-28T19:52:30.620Z,90.29
2023-01-28T19:54:58.090Z,90.36
2023-01-28T19:57:25.640Z,90.38
2023-01-28T19:59:53.255Z,90.39
2023-01-28T20:02:21.322Z,90.60
2023-01-28T20:05:00.374Z,90.56
2023-01-28T20:07:17.917Z,90.64
2023-01-28T20:09:46.491Z,90.57
2023-01-28T20:12:14.443Z,90.58
2023-01-28T20:14:43.791Z,90.53
2023-01-28T20:17:11.815Z,90.51
2023-01-28T20:19:39.650Z,90.52
2023-01-28T20:22:07.461Z,90.50
2023-01-28T20:24:34.911Z,90.39
2023-01-28T20:27:02.442Z,90.23
2023-01-28T20:29:30.202Z,90.25
2023-01-28T20:32:15.540Z,90.24
2023-01-28T20:34:27.208Z,90.29
2023-01-28T20:36:54.557Z,90.35
2023-01-28T20:39:21.945Z,90.40
2023-01-28T20:41:49.469Z,90.30
2023-01-28T20:44:16.856Z,90.25
2023-01-28T20:46:44.331Z,90.23
2023-01-28T20:49:17.030Z,90.30
2023-01-28T20:51:44.588Z,90.22
2023-01-28T20:54:13.046Z,90.18
2023-01-28T20:56:40.727Z,90.14
2023-01-28T20:59:09.737Z,90.13
2023-01-28T21:01:37.702Z,90.18
2023-01-28T21:04:10.400Z,90.20
2023-01-28T21:06:36.890Z,90.13
2023-01-28T21:09:04.509Z,90.06
2023-01-28T21:11:32.141Z,89.93
2023-01-28T21:13:59.688Z,89.80
2023-01-28T21:16:28.112Z,89.67
2023-01-28T21:18:55.367Z,89.73
2023-01-28T21:21:25.391Z,89.68
2023-01-28T21:23:58.169Z,89.65
2023-01-28T21:26:25.810Z,89.54
2023-01-28T21:28:53.144Z,89.52
2023-01-28T21:31:24.988Z,89.47
2023-01-28T21:33:56.019Z,89.36
2023-01-28T21:36:26.771Z,89.35
2023-01-28T21:38:56.259Z,89.18
2023-01-28T21:41:24.024Z,89.10
2023-01-28T21:43:53.009Z,89.00
2023-01-28T21:46:28.986Z,88.97
2023-01-28T21:48:59.166Z,88.92
2023-01-28T21:51:42.178Z,88.78
2023-01-28T21:54:12.192Z,88.82
2023-01-28T21:56:39.743Z,88.92
2023-01-28T21:59:25.431Z,88.90
2023-01-28T22:01:55.175Z,88.95
2023-01-28T22:04:24.192Z,88.96
2023-01-28T22:06:52.945Z,89.02
2023-01-28T22:09:20.497Z,89.11
2023-01-28T22:11:48.148Z,89.15
2023-01-28T22:14:15.571Z,89.09
2023-01-28T22:16:43.071Z,89.21
2023-01-28T22:19:10.769Z,89.15
2023-01-28T22:21:41.903Z,89.22
2023-01-28T22:24:12.613Z,89.20
2023-01-28T22:26:40.890Z,89.12
2023-01-28T22:29:08.787Z,89.19
2023-01-28T22:31:36.229Z,89.39
2023-01-28T22:34:03.832Z,89.45
2023-01-28T22:39:02.578Z,89.35
2023-01-28T22:41:30.311Z,89.23
2023-01-28T22:43:57.764Z,89.56
2023-01-28T22:46:25.074Z,89.75
2023-01-28T22:48:52.636Z,89.85
2023-01-28T22:51:22.201Z,89.76
2023-01-28T22:53:50.885Z,89.45
2023-01-28T22:56:20.350Z,89.40
2023-01-28T22:58:48.052Z,89.37
2023-01-28T23:01:17.099Z,89.30
2023-01-28T23:03:47.168Z,89.36
2023-01-28T23:06:16.648Z,89.35
2023-01-28T23:08:44.566Z,89.38
2023-01-28T23:11:15.143Z,89.44
2023-01-28T23:14:01.275Z,89.54
2023-01-28T23:16:48.070Z,89.62
2023-01-28T23:19:34.549Z,89.91
2023-01-28T23:22:20.452Z,90.04
2023-01-28T23:24:48.094Z,89.92
2023-01-28T23:27:16.325Z,89.87
2023-01-28T23:29:44.520Z,89.65
2023-01-28T23:32:11.940Z,89.53
2023-01-28T23:34:41.146Z,89.46
2023-01-28T23:37:09.594Z,89.41
2023-01-28T23:39:37.180Z,89.45
2023-01-28T23:42:17.334Z,89.41
2023-01-28T23:44:45.149Z,89.32
2023-01-28T23:47:12.550Z,89.31
2023-01-28T23:49:40.257Z,89.24
2023-01-28T23:52:08.161Z,89.11
2023-01-28T23:54:36.158Z,89.08
2023-01-28T23:57:04.566Z,88.98
2023-01-28T23:59:32.254Z,88.92
